Time;durP1;ratioP1;P1;durP2;ratioP2;P2;SDS_P1;SDS_P2;PMS_P1;PMS_P2;Temp;Humidity;BMP_temperature;BMP_pressure;BME280_temperature;BME280_humidity;BME280_pressure;Samples;Min_cycle;Max_cycle;Signal;HPM_P1;HPM_P2
2023/05/09 00:01:04;;;;;;;67.03;34.25;;;;;;;;;;5014278;28;90018;-66
2023/05/09 00:03:32;;;;;;;65.88;32.53;;;;;;;;;;5000047;28;89281;-66
2023/05/09 00:05:58;;;;;;;73.07;35.30;;;;;;;;;;5016367;28;91169;-66
2023/05/09 00:08:24;;;;;;;68.88;35.33;;;;;;;;;;5000891;28;89537;-66
2023/05/09 00:10:51;;;;;;;73.35;36.30;;;;;;;;;;5016133;28;89800;-66
2023/05/09 00:13:17;;;;;;;73.53;35.58;;;;;;;;;;4999840;28;90099;-66
2023/05/09 00:15:45;;;;;;;64.25;34.20;;;;;;;;;;5008126;28;89182;-66
2023/05/09 00:18:13;;;;;;;73.05;36.90;;;;;;;;;;5015607;28;89308;-66
2023/05/09 00:20:39;;;;;;;68.00;36.55;;;;;;;;;;5011186;28;89406;-66
2023/05/09 00:23:06;;;;;;;72.35;35.45;;;;;;;;;;5008767;28;89440;-66
2023/05/09 00:25:32;;;;;;;70.82;36.40;;;;;;;;;;5008492;28;89602;-66
2023/05/09 00:27:59;;;;;;;67.25;36.38;;;;;;;;;;5011531;28;90688;-66
2023/05/09 00:30:25;;;;;;;71.68;34.22;;;;;;;;;;5007515;28;89372;-66
2023/05/09 00:32:51;;;;;;;71.82;36.25;;;;;;;;;;5010132;28;90055;-66
2023/05/09 00:35:18;;;;;;;70.25;35.53;;;;;;;;;;5004217;28;90466;-66
2023/05/09 00:37:44;;;;;;;70.80;34.50;;;;;;;;;;5013249;28;90202;-66
2023/05/09 00:40:10;;;;;;;68.82;34.45;;;;;;;;;;5001023;28;89929;-66
2023/05/09 00:42:37;;;;;;;71.55;35.28;;;;;;;;;;5007819;28;89799;-66
2023/05/09 00:45:03;;;;;;;68.32;35.42;;;;;;;;;;5019558;28;90018;-66
2023/05/09 00:47:30;;;;;;;75.15;36.08;;;;;;;;;;5003234;28;89590;-66
2023/05/09 00:49:57;;;;;;;71.75;35.83;;;;;;;;;;5007471;28;89380;-66
2023/05/09 00:52:24;;;;;;;70.25;36.03;;;;;;;;;;5011594;28;91103;-66
2023/05/09 00:54:51;;;;;;;75.88;35.92;;;;;;;;;;5002557;28;89164;-66
2023/05/09 00:57:18;;;;;;;72.72;36.13;;;;;;;;;;5013192;28;89251;-66
2023/05/09 00:59:44;;;;;;;72.18;33.92;;;;;;;;;;5014189;28;90087;-66
2023/05/09 01:02:11;;;;;;;74.05;35.70;;;;;;;;;;5015277;28;89487;-66
2023/05/09 01:04:38;;;;;;;73.45;35.08;;;;;;;;;;5016257;28;89067;-66
2023/05/09 01:07:04;;;;;;;75.22;36.22;;;;;;;;;;5015839;28;90005;-66
2023/05/09 01:09:42;;;;;;;71.25;35.85;;;;;;;;;;5001385;28;89953;-66
2023/05/09 01:12:30;;;;;;;72.57;35.85;;;;;;;;;;5004977;28;91250;-66
2023/05/09 01:15:15;;;;;;;71.28;36.03;;;;;;;;;;5011116;28;89507;-66
2023/05/09 01:17:48;;;;;;;78.15;35.22;;;;;;;;;;5017180;28;89310;-66
2023/05/09 01:20:20;;;;;;;71.70;35.60;;;;;;;;;;5015571;28;90312;-66
2023/05/09 01:22:50;;;;;;;73.55;35.97;;;;;;;;;;5016545;28;89723;-67
2023/05/09 01:25:29;;;;;;;76.22;36.72;;;;;;;;;;5008547;28;90167;-66
2023/05/09 01:28:06;;;;;;;75.35;36.15;;;;;;;;;;5008078;28;91176;-66
2023/05/09 01:30:33;;;;;;;72.82;36.22;;;;;;;;;;5019390;28;89791;-66
2023/05/09 01:33:04;;;;;;;70.22;36.00;;;;;;;;;;5006021;28;89813;-66
2023/05/09 01:35:32;;;;;;;81.88;38.13;;;;;;;;;;5011415;28;90697;-66
2023/05/09 01:37:58;;;;;;;77.85;37.45;;;;;;;;;;5015340;28;89383;-66
2023/05/09 01:40:26;;;;;;;75.80;38.25;;;;;;;;;;5003748;28;90576;-66
2023/05/09 01:43:00;;;;;;;76.60;36.92;;;;;;;;;;5016427;28;89919;-66
2023/05/09 01:45:28;;;;;;;75.82;36.45;;;;;;;;;;4999469;28;89175;-66
2023/05/09 01:47:55;;;;;;;76.28;37.95;;;;;;;;;;5012852;28;89921;-65
2023/05/09 01:50:21;;;;;;;77.82;38.30;;;;;;;;;;5018977;28;89860;-65
2023/05/09 01:52:48;;;;;;;79.25;37.83;;;;;;;;;;5015647;28;89692;-65
2023/05/09 01:55:15;;;;;;;77.25;38.40;;;;;;;;;;5020081;27;89984;-65
2023/05/09 01:57:43;;;;;;;77.55;37.60;;;;;;;;;;5007296;28;89738;-65
2023/05/09 02:00:11;;;;;;;81.40;38.22;;;;;;;;;;5004838;28;90283;-65
2023/05/09 02:02:38;;;;;;;79.07;39.42;;;;;;;;;;5021750;28;89689;-65
2023/05/09 02:05:05;;;;;;;78.70;38.45;;;;;;;;;;5025908;28;88995;-66
2023/05/09 02:07:32;;;;;;;73.38;37.42;;;;;;;;;;5003501;28;90074;-65
2023/05/09 02:09:59;;;;;;;75.85;36.60;;;;;;;;;;4998881;28;90344;-65
2023/05/09 02:12:25;;;;;;;72.85;36.60;;;;;;;;;;5016203;28;90412;-66
2023/05/09 02:14:52;;;;;;;74.60;38.35;;;;;;;;;;5007812;28;90400;-66
2023/05/09 02:17:18;;;;;;;77.55;37.97;;;;;;;;;;5008064;28;90064;-65
2023/05/09 02:19:44;;;;;;;88.47;38.55;;;;;;;;;;5003921;28;91108;-65
2023/05/09 02:22:11;;;;;;;80.43;38.70;;;;;;;;;;5011600;28;89723;-65
2023/05/09 02:24:37;;;;;;;75.65;36.50;;;;;;;;;;5015348;28;88971;-65
2023/05/09 02:27:04;;;;;;;71.80;35.00;;;;;;;;;;5013740;28;88959;-66
2023/05/09 02:29:39;;;;;;;84.15;37.65;;;;;;;;;;5003947;28;89402;-65
2023/05/09 02:32:10;;;;;;;76.97;36.65;;;;;;;;;;5014707;28;89100;-65
2023/05/09 02:34:37;;;;;;;74.65;35.95;;;;;;;;;;5005781;28;89835;-66
2023/05/09 02:37:03;;;;;;;72.22;35.00;;;;;;;;;;5013341;28;89002;-66
2023/05/09 02:39:30;;;;;;;77.85;36.53;;;;;;;;;;5009193;28;89809;-65
2023/05/09 02:42:04;;;;;;;78.70;36.78;;;;;;;;;;5013212;28;89195;-65
2023/05/09 02:44:30;;;;;;;81.05;38.72;;;;;;;;;;5015752;28;88975;-65
2023/05/09 02:46:56;;;;;;;80.13;38.30;;;;;;;;;;5011934;28;90017;-65
2023/05/09 02:49:23;;;;;;;79.25;35.75;;;;;;;;;;5001562;28;90025;-65
2023/05/09 02:51:58;;;;;;;77.78;37.75;;;;;;;;;;5015007;28;89004;-65
2023/05/09 02:54:24;;;;;;;78.93;39.25;;;;;;;;;;5014351;28;90116;-65
2023/05/09 02:56:50;;;;;;;77.18;38.00;;;;;;;;;;5009473;28;90673;-65
2023/05/09 02:59:18;;;;;;;75.68;35.80;;;;;;;;;;5014623;28;91150;-64
2023/05/09 03:01:44;;;;;;;86.82;38.53;;;;;;;;;;4998650;28;89642;-67
2023/05/09 03:04:11;;;;;;;79.82;38.13;;;;;;;;;;5014049;27;89920;-65
2023/05/09 03:06:37;;;;;;;72.80;37.05;;;;;;;;;;5008261;28;89956;-65
2023/05/09 03:09:04;;;;;;;82.47;38.95;;;;;;;;;;5003477;28;89487;-65
2023/05/09 03:11:30;;;;;;;79.20;37.95;;;;;;;;;;5014208;28;89357;-65
2023/05/09 03:13:56;;;;;;;80.93;37.35;;;;;;;;;;5000669;28;89948;-65
2023/05/09 03:16:22;;;;;;;79.32;38.50;;;;;;;;;;5015250;28;89698;-65
2023/05/09 03:18:49;;;;;;;78.28;37.83;;;;;;;;;;5016432;28;90056;-65
2023/05/09 03:21:16;;;;;;;76.65;36.35;;;;;;;;;;5010216;28;89647;-65
2023/05/09 03:23:42;;;;;;;79.63;37.63;;;;;;;;;;4999606;28;90012;-65
2023/05/09 03:26:08;;;;;;;75.88;37.13;;;;;;;;;;4995319;28;90062;-65
2023/05/09 03:28:34;;;;;;;70.68;35.70;;;;;;;;;;5005312;28;89556;-65
2023/05/09 03:31:01;;;;;;;79.90;37.20;;;;;;;;;;4995599;28;89001;-65
2023/05/09 03:33:27;;;;;;;74.82;35.60;;;;;;;;;;5012664;28;90951;-66
2023/05/09 03:35:53;;;;;;;74.60;35.60;;;;;;;;;;5015785;28;90610;-66
2023/05/09 03:38:23;;;;;;;73.22;34.67;;;;;;;;;;5013589;28;89389;-66
2023/05/09 03:40:50;;;;;;;76.45;35.67;;;;;;;;;;4998709;28;89141;-66
2023/05/09 03:43:16;;;;;;;70.82;35.03;;;;;;;;;;5003906;28;89189;-66
2023/05/09 03:45:42;;;;;;;73.05;35.70;;;;;;;;;;5014038;28;91384;-66
2023/05/09 03:48:10;;;;;;;68.05;34.92;;;;;;;;;;4999007;28;89524;-66
2023/05/09 03:50:36;;;;;;;72.20;33.20;;;;;;;;;;4995250;28;89025;-65
2023/05/09 03:53:03;;;;;;;67.97;32.97;;;;;;;;;;5007931;28;90585;-65
2023/05/09 03:55:29;;;;;;;67.38;33.05;;;;;;;;;;5014515;28;90427;-65
2023/05/09 03:57:55;;;;;;;64.15;32.58;;;;;;;;;;5007646;28;89520;-66
2023/05/09 04:00:22;;;;;;;68.18;34.35;;;;;;;;;;5000008;28;89201;-66
2023/05/09 04:02:48;;;;;;;56.10;29.40;;;;;;;;;;4995256;28;90197;-66
2023/05/09 04:05:15;;;;;;;68.47;31.92;;;;;;;;;;5014612;28;90034;-66
2023/05/09 04:07:42;;;;;;;67.57;32.45;;;;;;;;;;5013968;28;89811;-66
2023/05/09 04:10:09;;;;;;;57.25;30.27;;;;;;;;;;5017525;28;88943;-67
2023/05/09 04:12:35;;;;;;;60.03;29.02;;;;;;;;;;5010388;28;91275;-66
2023/05/09 04:15:02;;;;;;;54.95;27.88;;;;;;;;;;5006840;28;89922;-66
2023/05/09 04:17:28;;;;;;;56.15;28.40;;;;;;;;;;5003404;28;91246;-65
2023/05/09 04:19:55;;;;;;;56.22;28.67;;;;;;;;;;5024810;28;90082;-66
2023/05/09 04:22:21;;;;;;;51.33;26.90;;;;;;;;;;5023977;28;89409;-66
2023/05/09 04:24:47;;;;;;;59.50;28.23;;;;;;;;;;5014403;28;90021;-66
2023/05/09 04:27:13;;;;;;;48.80;26.98;;;;;;;;;;5007302;28;90771;-66
2023/05/09 04:29:40;;;;;;;56.85;29.48;;;;;;;;;;4999287;28;90047;-66
2023/05/09 04:32:07;;;;;;;52.97;27.48;;;;;;;;;;5012283;28;90844;-66
2023/05/09 04:34:33;;;;;;;51.53;26.65;;;;;;;;;;4998215;28;90766;-66
2023/05/09 04:37:00;;;;;;;49.30;26.73;;;;;;;;;;5011521;28;89603;-66
2023/05/09 04:39:26;;;;;;;50.22;25.98;;;;;;;;;;5016697;28;90383;-66
2023/05/09 04:41:52;;;;;;;52.58;26.13;;;;;;;;;;5017383;28;89945;-66
2023/05/09 04:44:19;;;;;;;53.63;24.83;;;;;;;;;;5007610;27;88968;-66
2023/05/09 04:46:45;;;;;;;46.72;24.92;;;;;;;;;;5004163;28;89313;-66
2023/05/09 04:49:11;;;;;;;45.15;24.23;;;;;;;;;;5007203;28;89063;-66
2023/05/09 04:51:38;;;;;;;42.30;24.23;;;;;;;;;;5000872;28;90504;-66
2023/05/09 04:54:05;;;;;;;39.67;22.25;;;;;;;;;;5007941;28;89609;-66
2023/05/09 04:56:31;;;;;;;41.50;23.02;;;;;;;;;;4999182;28;89236;-66
2023/05/09 04:58:58;;;;;;;41.85;22.83;;;;;;;;;;5006108;28;90201;-66
2023/05/09 05:01:25;;;;;;;37.00;21.38;;;;;;;;;;5012575;28;89615;-66
2023/05/09 05:03:51;;;;;;;39.35;22.77;;;;;;;;;;5006088;28;90304;-66
2023/05/09 05:06:18;;;;;;;42.17;22.00;;;;;;;;;;5012639;28;90681;-66
2023/05/09 05:08:44;;;;;;;40.40;21.45;;;;;;;;;;4998913;28;89104;-66
2023/05/09 05:11:10;;;;;;;40.10;22.02;;;;;;;;;;5019597;28;90417;-66
2023/05/09 05:13:37;;;;;;;44.38;20.52;;;;;;;;;;5019269;27;89539;-66
2023/05/09 05:16:03;;;;;;;39.60;21.15;;;;;;;;;;5018260;28;89927;-65
2023/05/09 05:18:30;;;;;;;38.33;21.30;;;;;;;;;;5002728;28;91555;-66
2023/05/09 05:20:56;;;;;;;39.17;21.20;;;;;;;;;;4999437;28;89141;-66
2023/05/09 05:23:22;;;;;;;39.08;20.85;;;;;;;;;;5015461;28;89124;-66
2023/05/09 05:25:48;;;;;;;33.97;20.33;;;;;;;;;;4999021;28;90093;-66
2023/05/09 05:28:15;;;;;;;35.35;19.77;;;;;;;;;;5011028;28;89609;-66
2023/05/09 05:30:41;;;;;;;33.90;19.38;;;;;;;;;;5000990;28;90050;-66
2023/05/09 05:33:07;;;;;;;34.00;19.33;;;;;;;;;;5029822;28;89564;-66
2023/05/09 05:35:34;;;;;;;32.00;18.88;;;;;;;;;;5008605;28;91166;-66
2023/05/09 05:38:00;;;;;;;35.97;19.25;;;;;;;;;;5017173;28;89919;-65
2023/05/09 05:40:27;;;;;;;32.65;18.85;;;;;;;;;;5013518;28;89849;-65
2023/05/09 05:42:53;;;;;;;36.08;19.30;;;;;;;;;;5016490;28;89062;-66
2023/05/09 05:45:19;;;;;;;32.28;18.00;;;;;;;;;;5009106;28;89613;-66
2023/05/09 05:47:46;;;;;;;30.05;17.73;;;;;;;;;;5009852;27;90743;-66
2023/05/09 05:50:12;;;;;;;29.40;18.17;;;;;;;;;;5000444;28;91077;-65
2023/05/09 05:52:40;;;;;;;33.03;17.73;;;;;;;;;;5000988;28;89737;-65
2023/05/09 05:55:06;;;;;;;30.65;16.95;;;;;;;;;;4998027;28;90789;-65
2023/05/09 05:57:34;;;;;;;31.60;17.65;;;;;;;;;;5015655;28;92322;-65
2023/05/09 06:00:00;;;;;;;32.97;16.88;;;;;;;;;;5013164;28;89546;-66
2023/05/09 06:02:27;;;;;;;31.52;18.13;;;;;;;;;;5016143;28;89073;-66
2023/05/09 06:04:53;;;;;;;32.38;17.42;;;;;;;;;;5015089;28;91055;-67
2023/05/09 06:07:21;;;;;;;36.80;17.08;;;;;;;;;;5007957;28;89824;-66
2023/05/09 06:09:47;;;;;;;32.83;16.80;;;;;;;;;;5020109;27;89440;-67
2023/05/09 06:12:15;;;;;;;31.40;17.08;;;;;;;;;;5010658;28;89454;-66
2023/05/09 06:14:42;;;;;;;30.38;17.05;;;;;;;;;;4999654;28;90593;-67
2023/05/09 06:17:08;;;;;;;33.10;17.90;;;;;;;;;;5010592;28;91147;-66
2023/05/09 06:19:35;;;;;;;28.45;16.80;;;;;;;;;;5001313;28;90733;-67
2023/05/09 06:22:02;;;;;;;33.90;17.02;;;;;;;;;;5004025;28;90567;-67
2023/05/09 06:24:29;;;;;;;30.90;16.70;;;;;;;;;;4996265;28;91160;-66
2023/05/09 06:27:01;;;;;;;30.48;16.23;;;;;;;;;;4998554;28;89794;-66
2023/05/09 06:29:28;;;;;;;32.08;16.40;;;;;;;;;;4998663;28;89050;-66
2023/05/09 06:31:54;;;;;;;40.08;19.52;;;;;;;;;;5009731;28;91086;-68
2023/05/09 06:34:21;;;;;;;32.90;17.55;;;;;;;;;;5016239;28;89511;-67
2023/05/09 06:36:47;;;;;;;32.08;18.20;;;;;;;;;;5014076;28;90090;-67
2023/05/09 06:39:13;;;;;;;32.78;17.95;;;;;;;;;;5015880;28;89478;-67
2023/05/09 06:41:40;;;;;;;32.58;18.00;;;;;;;;;;5014713;28;89071;-67
2023/05/09 06:44:06;;;;;;;30.65;16.38;;;;;;;;;;5015505;28;90057;-67
2023/05/09 06:46:32;;;;;;;28.67;17.50;;;;;;;;;;5011222;28;89936;-67
2023/05/09 06:49:00;;;;;;;30.23;17.80;;;;;;;;;;4995180;28;90012;-67
2023/05/09 06:51:27;;;;;;;32.67;17.42;;;;;;;;;;4995620;27;90456;-68
2023/05/09 06:53:53;;;;;;;35.78;17.83;;;;;;;;;;5014214;28;90056;-67
2023/05/09 06:56:21;;;;;;;34.03;16.75;;;;;;;;;;5009934;28;90957;-66
2023/05/09 06:58:48;;;;;;;33.47;17.42;;;;;;;;;;5009793;28;89787;-67
2023/05/09 07:01:14;;;;;;;28.70;17.15;;;;;;;;;;5003134;27;89004;-67
2023/05/09 07:03:41;;;;;;;37.38;17.70;;;;;;;;;;4996031;28;90078;-66
2023/05/09 07:06:07;;;;;;;34.03;17.63;;;;;;;;;;4996006;28;90985;-66
2023/05/09 07:08:33;;;;;;;27.15;17.85;;;;;;;;;;5006474;28;90946;-67
2023/05/09 07:11:00;;;;;;;32.00;18.10;;;;;;;;;;5012830;28;90095;-66
2023/05/09 07:13:26;;;;;;;32.58;17.92;;;;;;;;;;5024385;28;89625;-66
2023/05/09 07:15:52;;;;;;;26.65;16.67;;;;;;;;;;5025946;27;89127;-66
2023/05/09 07:18:19;;;;;;;26.83;16.88;;;;;;;;;;5003827;28;91081;-66
2023/05/09 07:20:45;;;;;;;32.13;17.85;;;;;;;;;;5009889;28;89004;-66
2023/05/09 07:23:11;;;;;;;24.98;16.90;;;;;;;;;;5015705;28;90598;-66
2023/05/09 07:25:38;;;;;;;30.52;18.15;;;;;;;;;;5015960;28;90777;-66
2023/05/09 07:28:04;;;;;;;33.00;18.73;;;;;;;;;;5013145;28;91165;-66
2023/05/09 07:30:30;;;;;;;35.95;18.35;;;;;;;;;;5005111;28;89691;-66
2023/05/09 07:32:57;;;;;;;31.02;18.55;;;;;;;;;;5002624;28;90460;-66
2023/05/09 07:35:23;;;;;;;30.33;16.80;;;;;;;;;;5019367;28;89042;-66
2023/05/09 07:37:50;;;;;;;32.70;17.83;;;;;;;;;;5004712;28;88920;-66
2023/05/09 07:40:16;;;;;;;29.25;18.45;;;;;;;;;;5029132;28;89010;-66
2023/05/09 07:42:48;;;;;;;31.00;17.23;;;;;;;;;;5035879;28;91185;-66
2023/05/09 07:45:15;;;;;;;29.00;16.83;;;;;;;;;;5017082;27;90902;-66
2023/05/09 07:47:42;;;;;;;29.30;17.38;;;;;;;;;;5020966;28;90102;-66
2023/05/09 07:50:08;;;;;;;23.45;16.77;;;;;;;;;;4999721;28;89951;-66
2023/05/09 07:52:35;;;;;;;23.98;16.15;;;;;;;;;;5015696;28;90914;-67
2023/05/09 07:55:01;;;;;;;26.20;17.40;;;;;;;;;;5007324;28;89965;-66
2023/05/09 07:57:27;;;;;;;26.23;15.90;;;;;;;;;;5001228;28;90359;-65
2023/05/09 07:59:53;;;;;;;24.75;16.10;;;;;;;;;;4999646;28;89004;-65
2023/05/09 08:02:20;;;;;;;24.25;16.52;;;;;;;;;;5017244;28;89908;-64
2023/05/09 08:04:47;;;;;;;26.20;16.60;;;;;;;;;;5014180;28;89337;-65
2023/05/09 08:07:14;;;;;;;22.67;15.85;;;;;;;;;;5001001;28;89190;-65
2023/05/09 08:09:40;;;;;;;30.52;16.40;;;;;;;;;;4998771;28;90315;-66
2023/05/09 08:12:07;;;;;;;25.35;16.20;;;;;;;;;;5000312;28;89416;-66
2023/05/09 08:14:33;;;;;;;25.98;16.42;;;;;;;;;;5013367;28;90775;-65
2023/05/09 08:16:59;;;;;;;27.75;16.73;;;;;;;;;;5018387;28;90004;-65
2023/05/09 08:19:26;;;;;;;29.13;16.85;;;;;;;;;;5021008;28;90700;-65
2023/05/09 08:21:52;;;;;;;24.90;16.10;;;;;;;;;;5013601;28;90022;-65
2023/05/09 08:24:19;;;;;;;23.08;15.88;;;;;;;;;;5008132;28;91004;-65
2023/05/09 08:26:45;;;;;;;24.45;15.45;;;;;;;;;;5013505;28;89327;-64
2023/05/09 08:29:12;;;;;;;25.92;16.10;;;;;;;;;;5016839;28;90622;-64
2023/05/09 08:31:38;;;;;;;23.33;15.82;;;;;;;;;;5011990;28;89578;-66
2023/05/09 08:34:04;;;;;;;19.85;14.13;;;;;;;;;;5006010;28;90797;-65
2023/05/09 08:36:31;;;;;;;18.77;14.43;;;;;;;;;;5018185;28;90005;-66
2023/05/09 08:38:57;;;;;;;21.83;14.90;;;;;;;;;;5013069;28;89972;-66
2023/05/09 08:41:27;;;;;;;18.92;13.60;;;;;;;;;;5003898;28;90377;-65
2023/05/09 08:43:54;;;;;;;17.98;12.48;;;;;;;;;;5009616;28;89694;-66
2023/05/09 08:46:26;;;;;;;17.52;12.32;;;;;;;;;;4999594;28;89873;-65
2023/05/09 08:48:53;;;;;;;16.20;11.25;;;;;;;;;;5014774;28;90009;-66
2023/05/09 08:51:20;;;;;;;12.85;9.95;;;;;;;;;;5018163;28;89432;-66
2023/05/09 08:53:46;;;;;;;14.15;9.82;;;;;;;;;;5018749;28;89062;-66
2023/05/09 08:56:13;;;;;;;11.00;9.60;;;;;;;;;;5016682;28;88192;-66
2023/05/09 08:58:39;;;;;;;14.25;10.23;;;;;;;;;;5015481;28;88855;-66
2023/05/09 09:01:06;;;;;;;16.83;10.15;;;;;;;;;;5016190;28;89038;-67
2023/05/09 09:03:32;;;;;;;20.85;10.80;;;;;;;;;;5019895;28;90145;-65
2023/05/09 09:05:59;;;;;;;13.70;10.68;;;;;;;;;;5020811;28;89401;-66
2023/05/09 09:08:26;;;;;;;13.18;9.50;;;;;;;;;;5017313;28;89993;-66
2023/05/09 09:10:52;;;;;;;14.38;10.68;;;;;;;;;;5032213;28;88703;-66
2023/05/09 09:13:19;;;;;;;13.68;9.55;;;;;;;;;;5037650;27;89305;-66
2023/05/09 09:15:46;;;;;;;15.57;10.10;;;;;;;;;;5022830;28;90543;-66
2023/05/09 09:18:17;;;;;;;16.02;10.13;;;;;;;;;;5016874;28;89723;-65
2023/05/09 09:20:51;;;;;;;12.70;9.65;;;;;;;;;;4998539;28;89259;-65
2023/05/09 09:23:19;;;;;;;12.15;9.90;;;;;;;;;;5005787;28;92264;-65
2023/05/09 09:25:46;;;;;;;14.85;9.98;;;;;;;;;;5015599;28;89787;-66
2023/05/09 09:28:12;;;;;;;15.70;10.88;;;;;;;;;;5017795;28;89033;-66
2023/05/09 09:30:46;;;;;;;13.15;9.98;;;;;;;;;;5016200;28;89481;-65
2023/05/09 09:33:20;;;;;;;11.20;8.98;;;;;;;;;;5016024;28;88935;-66
2023/05/09 09:35:47;;;;;;;13.25;9.38;;;;;;;;;;5006156;28;89864;-66
2023/05/09 09:38:13;;;;;;;14.23;8.90;;;;;;;;;;5008340;28;89410;-67
2023/05/09 09:40:39;;;;;;;15.60;9.15;;;;;;;;;;5029428;28;89045;-65
2023/05/09 09:43:06;;;;;;;11.05;8.20;;;;;;;;;;5037229;27;88883;-66
2023/05/09 09:45:32;;;;;;;11.07;7.95;;;;;;;;;;4997849;28;90738;-66
2023/05/09 09:48:04;;;;;;;11.68;9.02;;;;;;;;;;5014003;28;88980;-66
2023/05/09 09:50:31;;;;;;;11.70;8.25;;;;;;;;;;4997937;28;89950;-66
2023/05/09 09:52:59;;;;;;;9.65;8.48;;;;;;;;;;4998755;28;87432;-66
2023/05/09 09:55:25;;;;;;;9.38;7.97;;;;;;;;;;4997630;28;88403;-66
2023/05/09 09:57:52;;;;;;;9.27;7.80;;;;;;;;;;5000259;28;89823;-66
2023/05/09 10:00:23;;;;;;;11.50;7.80;;;;;;;;;;4997467;28;89759;-65
2023/05/09 10:02:50;;;;;;;13.40;8.10;;;;;;;;;;4997628;28;89310;-64
2023/05/09 10:05:17;;;;;;;11.18;8.55;;;;;;;;;;5013549;28;89814;-64
2023/05/09 10:07:44;;;;;;;13.10;9.25;;;;;;;;;;5019875;28;89000;-65
2023/05/09 10:10:10;;;;;;;12.10;7.95;;;;;;;;;;5017548;28;88098;-65
2023/05/09 10:12:37;;;;;;;16.83;9.20;;;;;;;;;;5014153;28;88535;-65
2023/05/09 10:15:05;;;;;;;10.15;8.45;;;;;;;;;;5022747;28;88060;-65
2023/05/09 10:17:32;;;;;;;11.63;8.48;;;;;;;;;;5010230;27;88831;-65
2023/05/09 10:20:01;;;;;;;12.18;8.65;;;;;;;;;;5036892;28;89046;-65
2023/05/09 10:22:28;;;;;;;13.75;8.75;;;;;;;;;;5015694;27;88208;-65
2023/05/09 10:25:00;;;;;;;11.55;8.50;;;;;;;;;;5004339;28;88950;-65
2023/05/09 10:27:27;;;;;;;11.55;9.18;;;;;;;;;;4997731;28;90318;-65
2023/05/09 10:30:05;;;;;;;12.52;8.65;;;;;;;;;;5000438;28;88115;-66
2023/05/09 10:32:35;;;;;;;11.30;8.30;;;;;;;;;;5009201;28;90119;-66
2023/05/09 10:35:03;;;;;;;11.70;9.10;;;;;;;;;;5004742;28;89406;-64
2023/05/09 10:37:30;;;;;;;10.38;8.45;;;;;;;;;;4997644;28;89686;-65
2023/05/09 10:40:00;;;;;;;14.02;9.07;;;;;;;;;;4997509;28;90351;-66
2023/05/09 10:42:27;;;;;;;14.20;8.50;;;;;;;;;;5007928;28;87901;-66
2023/05/09 10:44:53;;;;;;;10.85;8.88;;;;;;;;;;5011694;28;88655;-67
2023/05/09 10:47:20;;;;;;;11.05;7.97;;;;;;;;;;5001431;28;88165;-66
2023/05/09 10:49:47;;;;;;;11.98;7.95;;;;;;;;;;4996614;28;88745;-66
2023/05/09 10:52:14;;;;;;;13.50;8.63;;;;;;;;;;5012641;28;89554;-65
2023/05/09 10:54:40;;;;;;;10.68;8.35;;;;;;;;;;5016077;28;88067;-66
2023/05/09 10:57:10;;;;;;;11.93;8.43;;;;;;;;;;5027593;28;89868;-65
2023/05/09 10:59:40;;;;;;;11.93;8.82;;;;;;;;;;5012873;28;89466;-65
2023/05/09 11:02:14;;;;;;;10.25;8.15;;;;;;;;;;5003042;28;89894;-64
2023/05/09 11:04:41;;;;;;;12.23;7.97;;;;;;;;;;5015380;28;88554;-64
2023/05/09 11:07:24;;;;;;;16.60;9.20;;;;;;;;;;5016367;28;88470;-65
2023/05/09 11:10:11;;;;;;;11.27;7.97;;;;;;;;;;5016495;28;88168;-65
2023/05/09 11:12:56;;;;;;;11.43;8.02;;;;;;;;;;5011703;28;88709;-64
2023/05/09 11:15:25;;;;;;;14.07;8.95;;;;;;;;;;4998876;28;90395;-65
2023/05/09 11:18:04;;;;;;;11.63;8.55;;;;;;;;;;5013550;28;90405;-65
2023/05/09 11:20:32;;;;;;;9.80;7.05;;;;;;;;;;5013446;28;90048;-65
2023/05/09 11:22:59;;;;;;;10.02;8.00;;;;;;;;;;5004897;28;88033;-66
2023/05/09 11:25:27;;;;;;;9.93;8.05;;;;;;;;;;5000699;28;88813;-66
2023/05/09 11:27:57;;;;;;;12.73;8.48;;;;;;;;;;5000239;28;89193;-66
2023/05/09 11:30:33;;;;;;;11.45;8.50;;;;;;;;;;5008096;28;88105;-66
2023/05/09 11:33:01;;;;;;;13.60;8.25;;;;;;;;;;5009525;28;88669;-66
2023/05/09 11:35:27;;;;;;;16.35;8.43;;;;;;;;;;5020442;28;89540;-66
2023/05/09 11:37:56;;;;;;;10.55;8.30;;;;;;;;;;5022813;28;88599;-66
2023/05/09 11:40:23;;;;;;;14.40;9.85;;;;;;;;;;5020067;28;89736;-65
2023/05/09 11:42:52;;;;;;;17.17;9.73;;;;;;;;;;5018514;28;88742;-66
2023/05/09 11:45:23;;;;;;;9.95;8.68;;;;;;;;;;5020746;28;88788;-66
2023/05/09 11:47:50;;;;;;;13.55;9.63;;;;;;;;;;5009157;28;89110;-66
2023/05/09 11:50:18;;;;;;;12.65;9.38;;;;;;;;;;5016361;28;88908;-67
2023/05/09 11:52:45;;;;;;;12.23;9.30;;;;;;;;;;5021147;28;89381;-66
2023/05/09 11:55:12;;;;;;;12.32;9.38;;;;;;;;;;5021121;28;90092;-68
2023/05/09 11:57:39;;;;;;;10.30;8.55;;;;;;;;;;5005791;28;88887;-66
2023/05/09 12:00:08;;;;;;;10.63;8.57;;;;;;;;;;5004178;28;89137;-66
2023/05/09 12:02:34;;;;;;;10.57;8.88;;;;;;;;;;5005221;28;88028;-66
2023/05/09 12:05:11;;;;;;;9.85;8.43;;;;;;;;;;5023590;28;88757;-66
2023/05/09 12:07:38;;;;;;;9.27;8.00;;;;;;;;;;5026744;28;90277;-66
2023/05/09 12:10:06;;;;;;;10.20;8.10;;;;;;;;;;5029068;27;88272;-66
2023/05/09 12:12:33;;;;;;;13.07;8.35;;;;;;;;;;5021660;28;89223;-66
2023/05/09 12:15:03;;;;;;;15.73;8.98;;;;;;;;;;5013636;28;88906;-66
2023/05/09 12:17:30;;;;;;;;;;;;;;;;;;5016862;28;89782;-66
2023/05/09 12:19:57;;;;;;;12.07;8.68;;;;;;;;;;5024326;28;118965;-66
2023/05/09 12:22:23;;;;;;;11.63;8.55;;;;;;;;;;5022531;28;87272;-66
2023/05/09 12:24:50;;;;;;;17.08;8.68;;;;;;;;;;5008745;28;89207;-66
2023/05/09 12:27:17;;;;;;;12.20;8.38;;;;;;;;;;5016272;28;88774;-66
2023/05/09 12:29:46;;;;;;;13.48;9.32;;;;;;;;;;5016513;28;88846;-66
2023/05/09 12:32:16;;;;;;;10.45;8.27;;;;;;;;;;5001420;28;88715;-66
2023/05/09 12:34:47;;;;;;;14.98;8.98;;;;;;;;;;5019728;28;90019;-66
2023/05/09 12:37:15;;;;;;;9.18;7.68;;;;;;;;;;5021933;28;89288;-66
2023/05/09 12:39:41;;;;;;;9.68;7.95;;;;;;;;;;5020659;28;88773;-66
2023/05/09 12:42:11;;;;;;;10.38;8.35;;;;;;;;;;5022886;28;89063;-66
2023/05/09 12:44:37;;;;;;;10.63;8.13;;;;;;;;;;5012563;28;88139;-66
2023/05/09 12:47:04;;;;;;;10.90;7.78;;;;;;;;;;5009477;28;88423;-65
2023/05/09 12:49:31;;;;;;;9.70;7.72;;;;;;;;;;5018675;28;88976;-66
2023/05/09 12:51:58;;;;;;;13.57;7.97;;;;;;;;;;5019067;28;87958;-65
2023/05/09 12:54:28;;;;;;;10.10;7.90;;;;;;;;;;5016106;28;89903;-65
2023/05/09 12:56:55;;;;;;;10.15;7.95;;;;;;;;;;5015020;28;88904;-66
2023/05/09 12:59:22;;;;;;;9.50;7.78;;;;;;;;;;5008153;28;88093;-65
2023/05/09 13:01:53;;;;;;;8.38;7.05;;;;;;;;;;5007833;28;89115;-63
2023/05/09 13:04:20;;;;;;;8.70;7.00;;;;;;;;;;5001902;28;89147;-64
2023/05/09 13:06:48;;;;;;;7.03;6.13;;;;;;;;;;4998758;28;90155;-63
2023/05/09 13:09:14;;;;;;;8.35;7.18;;;;;;;;;;5001386;28;88976;-64
2023/05/09 13:11:41;;;;;;;8.88;7.68;;;;;;;;;;5017357;28;87383;-64
2023/05/09 13:14:07;;;;;;;8.38;6.78;;;;;;;;;;5018920;28;89896;-64
2023/05/09 13:16:33;;;;;;;9.45;6.35;;;;;;;;;;5020076;28;88942;-64
2023/05/09 13:19:00;;;;;;;7.88;6.82;;;;;;;;;;5038260;27;89162;-65
2023/05/09 13:21:26;;;;;;;10.85;6.60;;;;;;;;;;5010444;27;89982;-65
2023/05/09 13:23:53;;;;;;;7.00;6.38;;;;;;;;;;5015228;28;88300;-64
2023/05/09 13:26:21;;;;;;;8.63;6.68;;;;;;;;;;5021323;28;88977;-64
2023/05/09 13:28:47;;;;;;;10.55;7.18;;;;;;;;;;5017478;28;88664;-64
2023/05/09 13:31:13;;;;;;;7.65;6.95;;;;;;;;;;5000240;28;89933;-64
2023/05/09 13:33:40;;;;;;;7.82;6.53;;;;;;;;;;4998312;28;88982;-69
2023/05/09 13:36:06;;;;;;;7.07;6.38;;;;;;;;;;4998892;28;88552;-63
2023/05/09 13:38:37;;;;;;;9.25;6.63;;;;;;;;;;4999049;28;89111;-65
2023/05/09 13:41:03;;;;;;;7.50;6.68;;;;;;;;;;5004726;28;89692;-64
2023/05/09 13:43:29;;;;;;;7.55;6.57;;;;;;;;;;4996988;28;88751;-64
2023/05/09 13:45:56;;;;;;;5.95;5.45;;;;;;;;;;5015366;28;89909;-64
2023/05/09 13:48:22;;;;;;;9.80;5.20;;;;;;;;;;5022779;28;89604;-64
2023/05/09 13:50:49;;;;;;;9.68;5.78;;;;;;;;;;5020626;28;88026;-64
2023/05/09 13:53:15;;;;;;;8.48;6.38;;;;;;;;;;5007956;27;89021;-64
2023/05/09 13:55:42;;;;;;;8.00;6.60;;;;;;;;;;4997858;28;88063;-64
2023/05/09 13:58:08;;;;;;;7.88;5.60;;;;;;;;;;5004884;28;89836;-64
2023/05/09 14:00:35;;;;;;;8.80;6.15;;;;;;;;;;5016474;27;88545;-65
2023/05/09 14:03:01;;;;;;;7.45;6.18;;;;;;;;;;5017870;28;89155;-64
2023/05/09 14:05:31;;;;;;;7.53;6.00;;;;;;;;;;5013367;28;88742;-64
2023/05/09 14:07:57;;;;;;;5.22;4.72;;;;;;;;;;5017044;28;89536;-65
2023/05/09 14:10:25;;;;;;;6.85;5.30;;;;;;;;;;5017151;27;89411;-63
2023/05/09 14:12:52;;;;;;;5.18;4.68;;;;;;;;;;5035672;27;89049;-64
2023/05/09 14:15:18;;;;;;;5.60;4.85;;;;;;;;;;5002185;28;89949;-64
2023/05/09 14:17:44;;;;;;;4.82;4.40;;;;;;;;;;5009613;28;89052;-64
2023/05/09 14:20:11;;;;;;;8.35;5.07;;;;;;;;;;5015856;28;88008;-64
2023/05/09 14:22:38;;;;;;;4.97;4.53;;;;;;;;;;5017629;28;89121;-64
2023/05/09 14:25:04;;;;;;;5.47;4.70;;;;;;;;;;5020223;28;89803;-64